Portada
METAR-TAF:

METAR-TAF

Aeroports :

Branson, Missouri, Estats Units d'Amèrica

latitud: 36-31-55N, longitud: 093-12-02W, altitud: 397 m

Observació

L'informe es va fer fa 59 minuts, a les 05:15 UTC
Vent 5 kt del Sud-Est
Temperatura 23°C
Humitat 83%
Pressió 1024 hPa
Visibilitat: 16.1 km
Cel clar

METAR: KBBG 200515Z AUTO 14005KT 10SM CLR 23/20 A3025 RMK AO2 TSNO

Hora: 01:14 (06:14 UTC)

Pronòstic

L'informe es va fer fa 54 minuts, a les 05:20 UTC
Pronòstic vàlid del 20 a les 06 UTC al 21 a les 06 UTC
Vent 4 kt del Sud-Est
Visibilitat: 10 km
Núvols disperses a una alçada de 25000 ft
A partir de les 20 a les 1500 UTC
Vent 5 kt del Est/Sud-Est
Visibilitat: 10 km
Núvols disperses a una alçada de 15000 ft

TAF: KBBG 200520Z 2006/2106 14004KT P6SM SCT250 FM201500 12005KT P6SM SCT150

Observacions i pronòstics meteorològics de més de 4000 aeroports (METAR i TAF).

Les estacions disponibles són els punts grocs i vermells al mapa.

Posi el ratolí al punt desitjat per veure el nom de l'estació.

Feu clic per veure les observacions i els pronòstics meteorològics.

Per canviar el mapa: feu clic els botons verds amb una creu de color negre per apropar; al botó verd amb un guió per allunyar la imatge; o en les fletxes verdes per a mapes adjacents.


METAR-TAF: